createdAt,value
2022-11-24T00:01:26.957Z,13.50
2022-11-24T00:03:55.685Z,12.55
2022-11-24T00:06:22.605Z,12.02
2022-11-24T00:08:49.588Z,13.20
2022-11-24T00:11:18.525Z,12.02
2022-11-24T00:13:45.690Z,12.27
2022-11-24T00:16:14.052Z,11.63
2022-11-24T00:18:43.824Z,11.65
2022-11-24T00:21:10.854Z,11.95
2022-11-24T00:23:38.071Z,12.57
2022-11-24T00:26:07.021Z,11.93
2022-11-24T00:28:34.625Z,12.07
2022-11-24T00:31:01.689Z,12.43
2022-11-24T00:33:28.513Z,11.95
2022-11-24T00:35:57.515Z,12.27
2022-11-24T00:38:24.543Z,11.40
2022-11-24T00:40:51.754Z,11.40
2022-11-24T00:43:18.527Z,12.10
2022-11-24T00:45:45.301Z,11.38
2022-11-24T00:48:12.025Z,12.20
2022-11-24T00:50:38.849Z,11.57
2022-11-24T00:53:06.908Z,11.27
2022-11-24T00:55:33.645Z,10.90
2022-11-24T00:58:00.348Z,11.38
2022-11-24T01:00:27.017Z,11.77
2022-11-24T01:02:53.740Z,10.77
2022-11-24T01:05:20.500Z,11.60
2022-11-24T01:07:47.421Z,10.23
2022-11-24T01:10:15.829Z,10.18
2022-11-24T01:12:42.480Z,10.80
2022-11-24T01:15:09.332Z,9.40
2022-11-24T01:17:36.055Z,10.25
2022-11-24T01:20:02.892Z,9.48
2022-11-24T01:22:29.577Z,9.45
2022-11-24T01:24:56.213Z,8.27
2022-11-24T01:27:24.234Z,9.30
2022-11-24T01:29:50.900Z,9.05
2022-11-24T01:32:17.549Z,9.40
2022-11-24T01:34:44.190Z,9.13
2022-11-24T01:37:10.823Z,8.63
2022-11-24T01:39:37.517Z,9.00
2022-11-24T01:42:04.196Z,9.27
2022-11-24T01:44:32.544Z,8.90
2022-11-24T01:47:02.618Z,9.55
2022-11-24T01:49:38.242Z,8.48
2022-11-24T01:52:10.111Z,9.25
2022-11-24T01:54:39.816Z,8.60
2022-11-24T01:57:12.600Z,8.45
2022-11-24T01:59:41.126Z,8.65
2022-11-24T02:02:08.738Z,8.50
2022-11-24T02:04:36.382Z,8.25
2022-11-24T02:07:05.261Z,8.32
2022-11-24T02:09:36.259Z,8.35
2022-11-24T02:12:03.246Z,7.53
2022-11-24T02:14:30.149Z,7.95
2022-11-24T02:16:58.264Z,7.38
2022-11-24T02:19:34.087Z,7.32
2022-11-24T02:22:02.829Z,7.32
2022-11-24T02:24:35.252Z,7.28
2022-11-24T02:27:04.099Z,7.95
2022-11-24T02:29:30.804Z,7.80
2022-11-24T02:32:01.911Z,7.10
2022-11-24T02:34:28.799Z,7.78
2022-11-24T02:36:55.473Z,7.72
2022-11-24T02:39:22.151Z,7.45
2022-11-24T02:41:52.984Z,7.57
2022-11-24T02:44:23.960Z,6.95
2022-11-24T02:47:00.888Z,7.03
2022-11-24T02:49:27.538Z,7.72
2022-11-24T02:51:54.172Z,7.65
2022-11-24T02:54:20.846Z,6.75
2022-11-24T02:56:47.513Z,7.18
2022-11-24T02:59:14.160Z,6.95
2022-11-24T03:06:45.680Z,6.75
2022-11-24T03:09:12.364Z,5.75
2022-11-24T03:11:39.096Z,6.60
2022-11-24T03:14:06.036Z,6.68
2022-11-24T03:16:33.205Z,6.40
2022-11-24T03:19:00.464Z,5.85
2022-11-24T03:21:27.472Z,6.93
2022-11-24T03:23:55.514Z,6.38
2022-11-24T03:26:24.243Z,6.32
2022-11-24T03:28:53.944Z,6.38
2022-11-24T03:31:20.999Z,5.95
2022-11-24T03:33:47.713Z,6.63
2022-11-24T03:36:14.396Z,5.93
2022-11-24T03:38:41.047Z,6.97
2022-11-24T03:41:09.039Z,6.65
2022-11-24T03:43:41.943Z,5.85
2022-11-24T03:46:10.801Z,5.93
2022-11-24T03:48:37.554Z,6.28
2022-11-24T03:51:04.550Z,6.55
2022-11-24T03:53:32.814Z,6.07
2022-11-24T03:55:59.877Z,5.97
2022-11-24T03:58:28.623Z,6.63
2022-11-24T04:00:55.566Z,5.65
2022-11-24T04:03:22.773Z,5.97
2022-11-24T04:05:49.517Z,6.20
2022-11-24T04:08:16.688Z,5.82
2022-11-24T04:10:43.630Z,5.57
2022-11-24T04:13:15.643Z,5.47
2022-11-24T04:15:44.249Z,5.63
2022-11-24T04:18:12.485Z,6.15
2022-11-24T04:20:39.691Z,5.85
2022-11-24T04:23:06.667Z,5.07
2022-11-24T04:25:33.344Z,5.97
2022-11-24T04:28:00.044Z,5.60
2022-11-24T04:30:28.017Z,5.70
2022-11-24T04:32:56.235Z,5.55
2022-11-24T04:35:23.044Z,5.47
2022-11-24T04:37:49.766Z,5.30
2022-11-24T04:40:17.297Z,5.60
2022-11-24T04:42:44.084Z,5.50
2022-11-24T04:45:11.213Z,5.10
2022-11-24T04:47:38.065Z,5.03
2022-11-24T04:50:07.419Z,5.32
2022-11-24T04:52:34.179Z,5.20
2022-11-24T04:55:01.270Z,5.40
2022-11-24T04:57:28.189Z,4.53
2022-11-24T04:59:55.276Z,5.05
2022-11-24T05:02:23.251Z,5.80
2022-11-24T05:04:49.926Z,5.22
2022-11-24T05:07:19.559Z,4.60
2022-11-24T05:09:58.983Z,4.60
2022-11-24T05:12:27.101Z,4.78
2022-11-24T05:14:53.764Z,4.97
2022-11-24T05:17:20.386Z,4.57
2022-11-24T05:19:47.100Z,5.43
2022-11-24T05:22:13.804Z,4.50
2022-11-24T05:24:41.813Z,5.03
2022-11-24T05:27:08.473Z,5.22
2022-11-24T05:29:35.128Z,5.15
2022-11-24T05:32:01.819Z,5.63
2022-11-24T05:34:28.460Z,5.70
2022-11-24T05:36:55.154Z,5.53
2022-11-24T05:39:21.818Z,5.90
2022-11-24T05:41:49.812Z,6.00
2022-11-24T05:44:16.457Z,5.55
2022-11-24T05:46:43.171Z,5.53
2022-11-24T05:49:10.056Z,5.22
2022-11-24T05:51:36.656Z,5.50
2022-11-24T05:54:03.481Z,5.38
2022-11-24T05:56:30.340Z,6.00
2022-11-24T05:58:58.410Z,5.45
2022-11-24T06:01:25.059Z,5.55
2022-11-24T06:03:51.773Z,6.05
2022-11-24T06:06:18.451Z,5.47
2022-11-24T06:08:45.140Z,6.65
2022-11-24T06:11:11.822Z,6.28
2022-11-24T06:13:41.374Z,6.70
2022-11-24T06:16:09.662Z,6.28
2022-11-24T06:18:36.400Z,5.40
2022-11-24T06:21:10.967Z,5.82
2022-11-24T06:23:38.552Z,4.95
2022-11-24T06:26:05.567Z,5.13
2022-11-24T06:28:32.774Z,4.80
2022-11-24T06:31:02.547Z,5.63
2022-11-24T06:33:34.670Z,5.18
2022-11-24T06:36:02.007Z,5.70
2022-11-24T06:38:28.752Z,5.13
2022-11-24T06:40:59.643Z,4.85
2022-11-24T06:43:26.759Z,5.30
2022-11-24T06:45:53.473Z,4.93
2022-11-24T06:48:20.408Z,4.85
2022-11-24T06:50:48.438Z,4.75
2022-11-24T06:53:15.183Z,5.43
2022-11-24T06:55:42.505Z,5.43
2022-11-24T06:58:09.179Z,4.20
2022-11-24T07:00:36.843Z,3.90
2022-11-24T07:03:03.661Z,3.30
2022-11-24T07:05:30.548Z,4.07
2022-11-24T07:08:00.257Z,4.47
2022-11-24T07:10:28.126Z,4.30
2022-11-24T07:12:54.826Z,4.10
2022-11-24T07:15:21.456Z,4.00
2022-11-24T07:17:48.183Z,4.40
2022-11-24T07:20:15.059Z,3.35
2022-11-24T07:22:41.684Z,2.78
2022-11-24T07:25:10.091Z,2.85
2022-11-24T07:27:36.896Z,2.33
2022-11-24T07:30:04.279Z,2.83
2022-11-24T07:32:31.136Z,2.10
2022-11-24T07:34:57.817Z,2.42
2022-11-24T07:37:29.661Z,2.50
2022-11-24T07:40:01.012Z,2.60
2022-11-24T07:42:29.258Z,2.80
2022-11-24T07:44:58.562Z,2.53
2022-11-24T07:47:25.239Z,2.95
2022-11-24T07:49:51.934Z,2.72
2022-11-24T07:52:18.772Z,3.65
2022-11-24T07:54:45.431Z,2.70
2022-11-24T07:57:12.079Z,2.42
2022-11-24T07:59:40.107Z,2.77
2022-11-24T08:02:07.420Z,2.83
2022-11-24T08:04:34.345Z,2.72
2022-11-24T08:07:02.376Z,3.60
2022-11-24T08:09:29.041Z,4.38
2022-11-24T08:11:55.669Z,4.18
2022-11-24T08:14:22.413Z,3.15
2022-11-24T08:16:50.497Z,3.08
2022-11-24T08:19:17.208Z,2.40
2022-11-24T08:21:43.939Z,3.08
2022-11-24T08:24:10.723Z,2.80
2022-11-24T08:26:37.345Z,2.67
2022-11-24T08:29:04.126Z,3.72
2022-11-24T08:31:34.107Z,2.13
2022-11-24T08:34:03.873Z,1.95
2022-11-24T08:36:31.035Z,2.20
2022-11-24T08:38:59.369Z,2.88
2022-11-24T08:41:27.705Z,2.63
2022-11-24T08:43:55.302Z,1.75
2022-11-24T08:46:22.442Z,2.05
2022-11-24T08:48:50.196Z,2.10
2022-11-24T08:51:22.964Z,2.08
2022-11-24T08:53:53.408Z,2.45
2022-11-24T08:56:20.061Z,2.65
2022-11-24T08:58:46.746Z,2.97
2022-11-24T09:01:14.617Z,3.70
2022-11-24T09:03:49.756Z,4.25
2022-11-24T09:06:19.955Z,2.53
2022-11-24T09:08:46.620Z,2.58
2022-11-24T09:11:14.866Z,2.28
2022-11-24T09:13:41.892Z,2.72
2022-11-24T09:16:10.432Z,1.88
2022-11-24T09:18:37.728Z,2.00
2022-11-24T09:21:08.140Z,2.55
2022-11-24T09:23:36.682Z,2.03
2022-11-24T09:26:05.013Z,1.95
2022-11-24T09:28:31.657Z,2.25
2022-11-24T09:31:01.215Z,2.13
2022-11-24T09:33:28.253Z,1.90
2022-11-24T09:35:57.036Z,2.03
2022-11-24T09:38:26.106Z,2.22
2022-11-24T09:40:57.900Z,2.10
2022-11-24T09:43:33.156Z,2.92
2022-11-24T09:46:07.977Z,2.22
2022-11-24T09:48:38.939Z,2.13
2022-11-24T09:51:10.258Z,1.80
2022-11-24T09:53:39.205Z,2.00
2022-11-24T09:56:18.723Z,1.52
2022-11-24T09:58:48.395Z,1.98
2022-11-24T10:01:17.817Z,3.17
2022-11-24T10:03:47.221Z,2.95
2022-11-24T10:06:22.409Z,3.00
2022-11-24T10:09:12.273Z,1.92
2022-11-24T10:11:45.569Z,1.88
2022-11-24T10:14:31.096Z,2.08
2022-11-24T10:17:05.813Z,2.33
2022-11-24T10:19:45.573Z,3.65
2022-11-24T10:22:29.718Z,2.20
2022-11-24T10:25:08.689Z,2.45
2022-11-24T10:27:41.723Z,2.10
2022-11-24T10:30:14.969Z,1.55
2022-11-24T10:32:45.739Z,2.35
2022-11-24T10:35:18.608Z,2.00
2022-11-24T10:37:54.049Z,1.70
2022-11-24T10:40:49.148Z,1.92
2022-11-24T10:43:14.874Z,1.27
2022-11-24T10:45:41.758Z,1.40
2022-11-24T10:48:16.464Z,1.40
2022-11-24T10:50:43.109Z,1.40
2022-11-24T10:53:16.897Z,1.50
2022-11-24T10:56:04.856Z,1.45
2022-11-24T10:58:37.882Z,1.23
2022-11-24T11:01:21.215Z,1.50
2022-11-24T11:03:50.949Z,1.95
2022-11-24T11:06:22.767Z,1.20
2022-11-24T11:08:49.540Z,1.42
2022-11-24T11:11:23.118Z,2.03
2022-11-24T11:13:59.836Z,1.67
2022-11-24T11:16:35.052Z,1.60
2022-11-24T11:19:15.667Z,2.00
2022-11-24T11:21:59.993Z,1.60
2022-11-24T11:24:31.413Z,1.60
2022-11-24T11:27:03.782Z,1.35
2022-11-24T11:35:12.706Z,1.95
2022-11-24T11:37:39.626Z,2.28
2022-11-24T11:40:15.313Z,1.90
2022-11-24T11:43:01.880Z,1.50
2022-11-24T11:45:34.728Z,1.60
2022-11-24T11:48:18.951Z,1.23
2022-11-24T11:51:21.647Z,1.95
2022-11-24T11:53:41.303Z,2.10
2022-11-24T11:56:20.746Z,2.13
2022-11-24T11:59:24.000Z,1.88
2022-11-24T12:02:24.640Z,2.30
2022-11-24T12:04:55.752Z,1.88
2022-11-24T12:07:37.070Z,1.50
2022-11-24T12:10:11.859Z,1.15
2022-11-24T12:13:10.884Z,2.00
2022-11-24T12:15:41.560Z,0.98
2022-11-24T12:18:48.401Z,0.98
2022-11-24T12:21:17.854Z,1.10
2022-11-24T12:24:01.969Z,1.35
2022-11-24T12:26:37.577Z,0.80
2022-11-24T12:29:25.757Z,1.13
2022-11-24T12:32:03.791Z,0.70
2022-11-24T12:34:44.147Z,1.40
2022-11-24T12:37:32.118Z,0.98
2022-11-24T12:40:04.609Z,1.05
2022-11-24T12:42:41.600Z,0.90
2022-11-24T12:45:15.330Z,1.08
2022-11-24T12:48:04.958Z,1.55
2022-11-24T12:50:37.403Z,1.27
2022-11-24T12:53:10.449Z,2.50
2022-11-24T12:55:37.734Z,1.70
2022-11-24T12:58:11.457Z,2.72
2022-11-24T13:00:47.907Z,4.57
2022-11-24T13:03:30.648Z,4.10
2022-11-24T13:06:02.979Z,6.50
2022-11-24T13:08:30.862Z,3.85
2022-11-24T13:11:26.363Z,3.20
2022-11-24T13:13:58.313Z,1.52
2022-11-24T13:19:17.496Z,1.25
2022-11-24T13:21:58.487Z,1.52
2022-11-24T13:24:27.487Z,1.92
2022-11-24T13:27:15.131Z,1.25
2022-11-24T13:29:43.085Z,2.72
2022-11-24T13:32:45.753Z,1.17
2022-11-24T13:35:14.165Z,2.00
2022-11-24T13:37:50.282Z,2.17
2022-11-24T13:41:06.316Z,1.73
2022-11-24T13:43:33.727Z,1.80
2022-11-24T13:46:00.425Z,2.03
2022-11-24T13:48:58.656Z,2.28
2022-11-24T13:51:25.913Z,5.10
2022-11-24T13:53:56.969Z,4.70
2022-11-24T13:56:29.255Z,3.78
2022-11-24T13:58:58.365Z,3.38
2022-11-24T14:01:26.842Z,3.63
2022-11-24T14:06:53.473Z,3.17
2022-11-24T14:09:28.061Z,3.58
2022-11-24T14:12:01.887Z,3.63
2022-11-24T14:14:28.838Z,3.80
2022-11-24T14:17:06.969Z,3.70
2022-11-24T14:19:33.669Z,3.80
2022-11-24T14:22:00.459Z,3.85
2022-11-24T14:24:38.115Z,4.50
2022-11-24T14:27:14.606Z,4.05
2022-11-24T14:29:54.163Z,2.25
2022-11-24T14:32:21.107Z,1.23
2022-11-24T14:34:48.541Z,1.20
2022-11-24T14:37:15.263Z,1.10
2022-11-24T14:39:43.442Z,2.10
2022-11-24T14:42:18.464Z,2.30
2022-11-24T14:44:49.049Z,1.92
2022-11-24T14:47:24.565Z,2.50
2022-11-24T14:49:57.059Z,3.33
2022-11-24T14:52:25.668Z,4.10
2022-11-24T14:55:07.581Z,2.60
2022-11-24T14:57:44.616Z,2.60
2022-11-24T15:00:18.469Z,2.90
2022-11-24T15:02:49.961Z,2.95
2022-11-24T15:05:17.531Z,3.90
2022-11-24T15:07:46.413Z,2.75
2022-11-24T15:10:33.898Z,3.83
2022-11-24T15:13:03.591Z,5.20
2022-11-24T15:15:32.171Z,15.20
2022-11-24T15:18:00.359Z,14.25
2022-11-24T15:20:29.947Z,9.52
2022-11-24T15:23:29.068Z,6.53
2022-11-24T15:25:57.939Z,8.68
2022-11-24T15:28:25.064Z,6.53
2022-11-24T15:30:53.382Z,5.93
2022-11-24T15:33:20.734Z,5.45
2022-11-24T15:35:47.912Z,5.72
2022-11-24T15:38:15.131Z,5.60
2022-11-24T15:40:44.435Z,5.47
2022-11-24T15:43:28.474Z,5.65
2022-11-24T15:45:55.616Z,4.93
2022-11-24T15:48:22.354Z,3.80
2022-11-24T15:50:50.083Z,4.70
2022-11-24T15:53:22.754Z,4.20
2022-11-24T15:55:50.286Z,4.63
2022-11-24T15:58:17.296Z,4.25
2022-11-24T16:00:45.862Z,4.78
2022-11-24T16:03:45.140Z,5.85
2022-11-24T16:05:59.496Z,6.20
2022-11-24T16:08:26.221Z,6.38
2022-11-24T16:10:52.848Z,5.55
2022-11-24T16:13:19.582Z,6.72
2022-11-24T16:15:47.641Z,6.03
2022-11-24T16:18:14.265Z,6.88
2022-11-24T16:20:40.937Z,6.55
2022-11-24T16:23:08.243Z,7.60
2022-11-24T16:25:34.930Z,6.70
2022-11-24T16:28:01.635Z,7.20
2022-11-24T16:30:28.328Z,6.13
2022-11-24T16:32:57.069Z,4.82
2022-11-24T16:35:23.799Z,4.57
2022-11-24T16:37:50.447Z,4.50
2022-11-24T16:40:17.174Z,4.50
2022-11-24T16:42:43.829Z,4.30
2022-11-24T16:45:12.638Z,3.20
2022-11-24T16:47:40.198Z,3.28
2022-11-24T16:50:10.128Z,2.67
2022-11-24T16:52:36.796Z,4.03
2022-11-24T16:55:04.228Z,4.20
2022-11-24T16:57:30.975Z,3.83
2022-11-24T16:59:57.661Z,2.85
2022-11-24T17:02:24.386Z,3.30
2022-11-24T17:04:51.082Z,2.65
2022-11-24T17:07:19.451Z,3.35
2022-11-24T17:09:46.148Z,3.67
2022-11-24T17:12:12.816Z,3.58
2022-11-24T17:14:39.518Z,3.83
2022-11-24T17:17:06.200Z,3.47
2022-11-24T17:19:32.918Z,4.20
2022-11-24T17:21:59.808Z,4.15
2022-11-24T17:24:28.144Z,4.13
2022-11-24T17:26:54.983Z,4.20
2022-11-24T17:29:21.752Z,3.28
2022-11-24T17:31:48.501Z,3.05
2022-11-24T17:34:15.200Z,3.95
2022-11-24T17:36:41.905Z,3.15
2022-11-24T17:39:09.484Z,3.58
2022-11-24T17:41:37.888Z,3.75
2022-11-24T17:44:04.582Z,3.45
2022-11-24T17:46:31.459Z,4.57
2022-11-24T17:48:58.264Z,5.32
2022-11-24T17:51:26.670Z,6.32
2022-11-24T17:53:54.645Z,6.22
2022-11-24T17:56:23.095Z,6.30
2022-11-24T17:58:52.748Z,5.43
2022-11-24T18:01:19.680Z,5.65
2022-11-24T18:03:50.452Z,5.60
2022-11-24T18:06:20.118Z,7.05
2022-11-24T18:08:47.421Z,6.20
2022-11-24T18:11:15.730Z,5.63
2022-11-24T18:14:00.776Z,5.65
2022-11-24T18:16:30.606Z,6.13
2022-11-24T18:19:07.721Z,5.25
2022-11-24T18:21:36.125Z,5.88
2022-11-24T18:24:02.983Z,6.60
2022-11-24T18:26:29.634Z,6.28
2022-11-24T18:28:56.330Z,6.80
2022-11-24T18:31:23.038Z,6.32
2022-11-24T18:33:51.134Z,5.43
2022-11-24T18:36:19.207Z,7.28
2022-11-24T18:38:45.930Z,5.80
2022-11-24T18:41:14.130Z,5.57
2022-11-24T18:43:41.228Z,5.60
2022-11-24T18:46:10.209Z,5.28
2022-11-24T18:48:36.938Z,4.07
2022-11-24T18:51:05.890Z,4.13
2022-11-24T18:53:32.566Z,3.92
2022-11-24T18:56:01.034Z,5.40
2022-11-24T18:58:28.417Z,5.10
2022-11-24T19:00:55.855Z,4.72
2022-11-24T19:03:22.556Z,4.35
2022-11-24T19:05:49.848Z,4.75
2022-11-24T19:08:17.824Z,4.95
2022-11-24T19:10:44.525Z,5.53
2022-11-24T19:13:11.885Z,5.40
2022-11-24T19:15:38.567Z,5.32
2022-11-24T19:18:05.482Z,5.93
2022-11-24T19:20:34.238Z,6.47
2022-11-24T19:23:00.912Z,7.38
2022-11-24T19:25:28.918Z,6.70
2022-11-24T19:27:55.609Z,7.05
2022-11-24T19:30:22.299Z,5.82
2022-11-24T19:32:48.940Z,4.72
2022-11-24T19:35:15.645Z,4.88
2022-11-24T19:37:42.309Z,4.30
2022-11-24T19:40:09.709Z,5.15
2022-11-24T19:42:37.735Z,5.07
2022-11-24T19:45:05.600Z,4.15
2022-11-24T19:47:32.242Z,4.75
2022-11-24T19:49:58.948Z,4.50
2022-11-24T19:52:25.718Z,4.50
2022-11-24T19:54:52.343Z,4.72
2022-11-24T19:57:19.034Z,4.93
2022-11-24T19:59:47.074Z,5.22
2022-11-24T20:02:13.775Z,5.45
2022-11-24T20:04:40.470Z,4.75
2022-11-24T20:07:07.174Z,4.57
2022-11-24T20:09:33.953Z,4.60
2022-11-24T20:12:00.705Z,4.78
2022-11-24T20:14:27.415Z,5.13
2022-11-24T20:16:55.585Z,4.68
2022-11-24T20:19:22.360Z,4.80
2022-11-24T20:21:49.048Z,4.63
2022-11-24T20:24:18.409Z,4.47
2022-11-24T20:26:47.002Z,4.75
2022-11-24T20:29:14.208Z,4.72
2022-11-24T20:31:43.417Z,4.60
2022-11-24T20:34:12.447Z,5.28
2022-11-24T20:36:41.571Z,4.32
2022-11-24T20:39:11.587Z,4.30
2022-11-24T20:41:38.430Z,4.40
2022-11-24T20:44:07.952Z,5.18
2022-11-24T20:46:36.625Z,4.90
2022-11-24T20:49:04.697Z,4.65
2022-11-24T20:51:35.165Z,4.47
2022-11-24T20:54:03.880Z,3.85
2022-11-24T20:56:33.282Z,3.70
2022-11-24T20:59:00.429Z,3.53
2022-11-24T21:01:29.112Z,4.20
2022-11-24T21:03:58.185Z,4.10
2022-11-24T21:06:25.988Z,4.55
2022-11-24T21:09:00.572Z,3.95
2022-11-24T21:11:30.225Z,4.30
2022-11-24T21:13:56.900Z,4.63
2022-11-24T21:16:25.147Z,3.90
2022-11-24T21:18:53.031Z,3.50
2022-11-24T21:21:20.722Z,3.58
2022-11-24T21:23:47.753Z,4.00
2022-11-24T21:26:17.511Z,4.65
2022-11-24T21:28:45.613Z,4.03
2022-11-24T21:31:14.213Z,4.28
2022-11-24T21:33:41.422Z,4.72
2022-11-24T21:36:08.925Z,4.18
2022-11-24T21:38:35.666Z,3.90
2022-11-24T21:41:03.561Z,3.77
2022-11-24T21:43:32.513Z,3.88
2022-11-24T21:46:00.367Z,4.00
2022-11-24T21:48:27.156Z,4.32
2022-11-24T21:50:53.897Z,4.78
2022-11-24T21:53:20.709Z,4.23
2022-11-24T21:55:54.408Z,4.07
2022-11-24T21:58:21.702Z,3.50
2022-11-24T22:00:50.327Z,3.50
2022-11-24T22:03:17.587Z,3.85
2022-11-24T22:05:52.755Z,4.73
2022-11-24T22:08:19.425Z,3.70
2022-11-24T22:10:46.169Z,3.17
2022-11-24T22:13:12.851Z,2.90
2022-11-24T22:15:39.611Z,2.42
2022-11-24T22:18:07.637Z,2.70
2022-11-24T22:20:34.334Z,2.70
2022-11-24T22:23:01.128Z,2.63
2022-11-24T22:25:27.807Z,2.53
2022-11-24T22:27:54.462Z,2.78
2022-11-24T22:30:21.210Z,2.87
2022-11-24T22:32:47.884Z,2.55
2022-11-24T22:35:16.119Z,3.10
2022-11-24T22:37:42.741Z,3.10
2022-11-24T22:40:09.792Z,2.80
2022-11-24T22:42:36.594Z,3.17
2022-11-24T22:45:03.703Z,2.80
2022-11-24T22:47:30.464Z,3.20
2022-11-24T22:49:57.139Z,3.15
2022-11-24T22:52:25.133Z,3.55
2022-11-24T22:54:51.824Z,3.17
2022-11-24T22:57:18.509Z,3.28
2022-11-24T22:59:45.163Z,3.30
2022-11-24T23:02:11.815Z,4.15
2022-11-24T23:04:38.459Z,4.15
2022-11-24T23:07:05.259Z,5.27
2022-11-24T23:09:33.304Z,4.82
2022-11-24T23:12:00.030Z,4.70
2022-11-24T23:14:26.680Z,5.25
2022-11-24T23:16:53.755Z,5.57
2022-11-24T23:19:20.467Z,5.07
2022-11-24T23:21:47.080Z,6.00
2022-11-24T23:24:13.737Z,6.82
2022-11-24T23:26:41.717Z,6.60
2022-11-24T23:29:10.036Z,6.00
2022-11-24T23:31:36.707Z,5.60
2022-11-24T23:34:04.081Z,6.10
2022-11-24T23:36:31.308Z,4.72
2022-11-24T23:39:02.049Z,3.70
2022-11-24T23:41:30.188Z,3.88
2022-11-24T23:43:58.634Z,4.80
2022-11-24T23:46:26.709Z,10.98
2022-11-24T23:48:54.628Z,9.82
2022-11-24T23:51:22.880Z,5.20
2022-11-24T23:53:50.267Z,3.97
2022-11-24T23:56:19.350Z,4.03
2022-11-24T23:58:46.310Z,4.18
